sensor_id;sensor_type;location;lat;lon;timestamp;pressure;altitude;pressure_sealevel;temperature;humidity
19086;BME280;9675;51.538;6.728;2022-10-31T00:00:53;101716.16;;;18.98;100.00
19086;BME280;9675;51.538;6.728;2022-10-31T00:03:20;101708.28;;;18.97;100.00
19086;BME280;9675;51.538;6.728;2022-10-31T00:05:49;101710.88;;;18.95;100.00
19086;BME280;9675;51.538;6.728;2022-10-31T00:08:17;101715.34;;;18.99;100.00
19086;BME280;9675;51.538;6.728;2022-10-31T00:10:46;101720.56;;;18.99;100.00
19086;BME280;9675;51.538;6.728;2022-10-31T00:13:14;101709.22;;;18.99;100.00
19086;BME280;9675;51.538;6.728;2022-10-31T00:15:41;101710.13;;;18.99;100.00
19086;BME280;9675;51.538;6.728;2022-10-31T00:18:10;101701.31;;;18.96;100.00
19086;BME280;9675;51.538;6.728;2022-10-31T00:20:38;101717.00;;;18.97;100.00
19086;BME280;9675;51.538;6.728;2022-10-31T00:23:06;101713.50;;;18.97;100.00
19086;BME280;9675;51.538;6.728;2022-10-31T00:25:37;101709.16;;;18.96;100.00
19086;BME280;9675;51.538;6.728;2022-10-31T00:28:09;101715.16;;;18.93;100.00
19086;BME280;9675;51.538;6.728;2022-10-31T00:30:37;101722.16;;;18.94;100.00
19086;BME280;9675;51.538;6.728;2022-10-31T00:33:04;101735.97;;;18.92;100.00
19086;BME280;9675;51.538;6.728;2022-10-31T00:35:32;101730.72;;;18.90;100.00
19086;BME280;9675;51.538;6.728;2022-10-31T00:37:59;101723.63;;;18.86;100.00
19086;BME280;9675;51.538;6.728;2022-10-31T00:40:26;101723.69;;;18.88;100.00
19086;BME280;9675;51.538;6.728;2022-10-31T00:42:53;101722.75;;;18.86;100.00
19086;BME280;9675;51.538;6.728;2022-10-31T00:45:22;101724.38;;;18.82;100.00
19086;BME280;9675;51.538;6.728;2022-10-31T00:47:48;101724.38;;;18.82;100.00
19086;BME280;9675;51.538;6.728;2022-10-31T00:50:16;101724.34;;;18.81;100.00
19086;BME280;9675;51.538;6.728;2022-10-31T00:52:43;101718.25;;;18.80;100.00
19086;BME280;9675;51.538;6.728;2022-10-31T00:55:10;101724.31;;;18.79;100.00
19086;BME280;9675;51.538;6.728;2022-10-31T00:57:37;101713.75;;;18.76;100.00
19086;BME280;9675;51.538;6.728;2022-10-31T01:00:05;101715.38;;;18.73;100.00
19086;BME280;9675;51.538;6.728;2022-10-31T01:02:34;101721.44;;;18.72;100.00
19086;BME280;9675;51.538;6.728;2022-10-31T01:05:01;101714.41;;;18.69;100.00
19086;BME280;9675;51.538;6.728;2022-10-31T01:07:28;101707.44;;;18.68;100.00
19086;BME280;9675;51.538;6.728;2022-10-31T01:09:55;101713.41;;;18.65;100.00
19086;BME280;9675;51.538;6.728;2022-10-31T01:12:22;101717.78;;;18.65;100.00
19086;BME280;9675;51.538;6.728;2022-10-31T01:14:49;101716.78;;;18.61;100.00
19086;BME280;9675;51.538;6.728;2022-10-31T01:17:16;101711.53;;;18.60;100.00
19086;BME280;9675;51.538;6.728;2022-10-31T01:19:45;101706.22;;;18.57;100.00
19086;BME280;9675;51.538;6.728;2022-10-31T01:22:12;101721.69;;;18.52;100.00
19086;BME280;9675;51.538;6.728;2022-10-31T01:24:39;101718.13;;;18.50;100.00
19086;BME280;9675;51.538;6.728;2022-10-31T01:27:06;101721.59;;;18.49;100.00
19086;BME280;9675;51.538;6.728;2022-10-31T01:29:33;101721.53;;;18.48;100.00
19086;BME280;9675;51.538;6.728;2022-10-31T01:32:00;101712.78;;;18.46;100.00
19086;BME280;9675;51.538;6.728;2022-10-31T01:34:27;101717.06;;;18.44;100.00
19086;BME280;9675;51.538;6.728;2022-10-31T01:36:56;101720.41;;;18.40;100.00
19086;BME280;9675;51.538;6.728;2022-10-31T01:39:23;101714.28;;;18.38;100.00
19086;BME280;9675;51.538;6.728;2022-10-31T01:41:53;101717.63;;;18.34;100.00
19086;BME280;9675;51.538;6.728;2022-10-31T01:44:51;101714.00;;;18.30;100.00
19086;BME280;9675;51.538;6.728;2022-10-31T01:47:31;101717.38;;;18.26;100.00
19086;BME280;9675;51.538;6.728;2022-10-31T01:50:04;101719.91;;;18.24;100.00
19086;BME280;9675;51.538;6.728;2022-10-31T01:52:39;101718.88;;;18.19;100.00
19086;BME280;9675;51.538;6.728;2022-10-31T01:55:13;101726.69;;;18.19;100.00
19086;BME280;9675;51.538;6.728;2022-10-31T01:57:48;101725.72;;;18.16;100.00
19086;BME280;9675;51.538;6.728;2022-10-31T02:00:19;101723.84;;;18.12;100.00
19086;BME280;9675;51.538;6.728;2022-10-31T02:02:48;101723.75;;;18.09;100.00
19086;BME280;9675;51.538;6.728;2022-10-31T02:05:20;101727.16;;;18.06;100.00
19086;BME280;9675;51.538;6.728;2022-10-31T02:07:55;101717.47;;;18.02;100.00
19086;BME280;9675;51.538;6.728;2022-10-31T02:10:24;101727.00;;;18.02;100.00
19086;BME280;9675;51.538;6.728;2022-10-31T02:12:54;101720.78;;;17.98;100.00
19086;BME280;9675;51.538;6.728;2022-10-31T02:15:22;101716.28;;;17.93;100.00
19086;BME280;9675;51.538;6.728;2022-10-31T02:17:49;101724.94;;;17.93;100.00
19086;BME280;9675;51.538;6.728;2022-10-31T02:20:19;101725.69;;;17.89;100.00
19086;BME280;9675;51.538;6.728;2022-10-31T02:23:30;101718.59;;;17.85;100.00
19086;BME280;9675;51.538;6.728;2022-10-31T02:26:35;101717.66;;;17.83;100.00
19086;BME280;9675;51.538;6.728;2022-10-31T02:29:53;101713.25;;;17.80;100.00
19086;BME280;9675;51.538;6.728;2022-10-31T02:35:36;101717.28;;;17.72;100.00
19086;BME280;9675;51.538;6.728;2022-10-31T02:38:23;101725.06;;;17.71;100.00
19086;BME280;9675;51.538;6.728;2022-10-31T02:41:03;101715.34;;;17.67;100.00
19086;BME280;9675;51.538;6.728;2022-10-31T02:43:40;101714.44;;;17.65;100.00
19086;BME280;9675;51.538;6.728;2022-10-31T02:46:19;101702.97;;;17.60;100.00
19086;BME280;9675;51.538;6.728;2022-10-31T02:48:55;101700.19;;;17.57;100.00
19086;BME280;9675;51.538;6.728;2022-10-31T02:51:25;101699.28;;;17.55;100.00
19086;BME280;9675;51.538;6.728;2022-10-31T02:53:52;101703.53;;;17.53;100.00
19086;BME280;9675;51.538;6.728;2022-10-31T02:56:20;101703.44;;;17.50;100.00
19086;BME280;9675;51.538;6.728;2022-10-31T02:58:51;101706.81;;;17.47;100.00
19086;BME280;9675;51.538;6.728;2022-10-31T03:01:48;101695.41;;;17.43;100.00
19086;BME280;9675;51.538;6.728;2022-10-31T03:04:46;101698.78;;;17.41;100.00
19086;BME280;9675;51.538;6.728;2022-10-31T03:07:24;101690.81;;;17.36;100.00
19086;BME280;9675;51.538;6.728;2022-10-31T03:10:04;101697.69;;;17.34;100.00
19086;BME280;9675;51.538;6.728;2022-10-31T03:12:40;101707.16;;;17.32;100.00
19086;BME280;9675;51.538;6.728;2022-10-31T03:15:19;101704.47;;;17.29;100.00
19086;BME280;9675;51.538;6.728;2022-10-31T03:17:57;101706.94;;;17.26;100.00
19086;BME280;9675;51.538;6.728;2022-10-31T03:20:35;101707.66;;;17.22;100.00
19086;BME280;9675;51.538;6.728;2022-10-31T03:23:08;101710.19;;;17.21;100.00
19086;BME280;9675;51.538;6.728;2022-10-31T03:25:39;101715.38;;;17.19;100.00
19086;BME280;9675;51.538;6.728;2022-10-31T03:28:08;101714.41;;;17.17;100.00
19086;BME280;9675;51.538;6.728;2022-10-31T03:30:41;101723.78;;;17.12;100.00
19086;BME280;9675;51.538;6.728;2022-10-31T03:33:13;101721.09;;;17.11;100.00
19086;BME280;9675;51.538;6.728;2022-10-31T03:35:47;101724.50;;;17.08;100.00
19086;BME280;9675;51.538;6.728;2022-10-31T03:38:15;101715.72;;;17.06;100.00
19086;BME280;9675;51.538;6.728;2022-10-31T03:40:46;101709.53;;;17.03;100.00
19086;BME280;9675;51.538;6.728;2022-10-31T03:43:19;101716.44;;;17.02;100.00
19086;BME280;9675;51.538;6.728;2022-10-31T03:45:48;101711.97;;;16.98;100.00
19086;BME280;9675;51.538;6.728;2022-10-31T03:48:19;101714.44;;;16.95;100.00
19086;BME280;9675;51.538;6.728;2022-10-31T03:50:58;101719.53;;;16.92;100.00
19086;BME280;9675;51.538;6.728;2022-10-31T03:53:34;101710.78;;;16.90;100.00
19086;BME280;9675;51.538;6.728;2022-10-31T03:56:12;101717.53;;;16.85;100.00
19086;BME280;9675;51.538;6.728;2022-10-31T03:58:55;101716.69;;;16.86;100.00
19086;BME280;9675;51.538;6.728;2022-10-31T04:01:29;101715.63;;;16.81;100.00
19086;BME280;9675;51.538;6.728;2022-10-31T04:03:58;101714.69;;;16.79;100.00
19086;BME280;9675;51.538;6.728;2022-10-31T04:06:29;101719.84;;;16.77;100.00
19086;BME280;9675;51.538;6.728;2022-10-31T04:09:03;101716.28;;;16.75;100.00
19086;BME280;9675;51.538;6.728;2022-10-31T04:11:36;101705.72;;;16.71;100.00
19086;BME280;9675;51.538;6.728;2022-10-31T04:14:05;101710.91;;;16.71;100.00
19086;BME280;9675;51.538;6.728;2022-10-31T04:16:33;101712.56;;;16.69;100.00
19086;BME280;9675;51.538;6.728;2022-10-31T04:19:00;101710.75;;;16.66;100.00
19086;BME280;9675;51.538;6.728;2022-10-31T04:21:29;101706.25;;;16.62;100.00
19086;BME280;9675;51.538;6.728;2022-10-31T04:23:57;101703.44;;;16.57;100.00
19086;BME280;9675;51.538;6.728;2022-10-31T04:26:25;101687.59;;;16.51;100.00
19086;BME280;9675;51.538;6.728;2022-10-31T04:28:52;101693.78;;;16.55;100.00
19086;BME280;9675;51.538;6.728;2022-10-31T04:31:19;101693.72;;;16.53;100.00
19086;BME280;9675;51.538;6.728;2022-10-31T04:33:46;101681.44;;;16.49;100.00
19086;BME280;9675;51.538;6.728;2022-10-31T04:36:13;101685.66;;;16.46;100.00
19086;BME280;9675;51.538;6.728;2022-10-31T04:38:41;101695.09;;;16.44;100.00
19086;BME280;9675;51.538;6.728;2022-10-31T04:41:09;101698.50;;;16.43;100.00
19086;BME280;9675;51.538;6.728;2022-10-31T04:43:36;101688.88;;;16.40;100.00
19086;BME280;9675;51.538;6.728;2022-10-31T04:46:03;101697.50;;;16.39;100.00
19086;BME280;9675;51.538;6.728;2022-10-31T04:48:30;101705.19;;;16.36;100.00
19086;BME280;9675;51.538;6.728;2022-10-31T04:51:00;101698.94;;;16.31;100.00
19086;BME280;9675;51.538;6.728;2022-10-31T04:53:28;101694.56;;;16.30;100.00
19086;BME280;9675;51.538;6.728;2022-10-31T04:55:58;101690.16;;;16.29;100.00
19086;BME280;9675;51.538;6.728;2022-10-31T04:58:26;101696.19;;;16.28;100.00
19086;BME280;9675;51.538;6.728;2022-10-31T05:00:54;101703.94;;;16.27;100.00
19086;BME280;9675;51.538;6.728;2022-10-31T05:03:22;101703.00;;;16.25;100.00
19086;BME280;9675;51.538;6.728;2022-10-31T05:05:49;101695.00;;;16.20;100.00
19086;BME280;9675;51.538;6.728;2022-10-31T05:08:16;101701.09;;;16.21;100.00
19086;BME280;9675;51.538;6.728;2022-10-31T05:10:43;101688.03;;;16.19;100.00
19086;BME280;9675;51.538;6.728;2022-10-31T05:13:11;101687.06;;;16.17;100.00
19086;BME280;9675;51.538;6.728;2022-10-31T05:15:40;101682.72;;;16.16;100.00
19086;BME280;9675;51.538;6.728;2022-10-31T05:18:07;101672.13;;;16.11;100.00
19086;BME280;9675;51.538;6.728;2022-10-31T05:20:34;101673.91;;;16.12;100.00
19086;BME280;9675;51.538;6.728;2022-10-31T05:23:01;101678.19;;;16.12;100.00
19086;BME280;9675;51.538;6.728;2022-10-31T05:25:29;101664.28;;;16.10;100.00
19086;BME280;9675;51.538;6.728;2022-10-31T05:27:56;101665.03;;;16.07;100.00
19086;BME280;9675;51.538;6.728;2022-10-31T05:30:28;101668.41;;;16.05;100.00
19086;BME280;9675;51.538;6.728;2022-10-31T05:32:55;101667.44;;;16.03;100.00
19086;BME280;9675;51.538;6.728;2022-10-31T05:35:25;101661.31;;;16.01;100.00
19086;BME280;9675;51.538;6.728;2022-10-31T05:37:53;101667.34;;;16.00;100.00
19086;BME280;9675;51.538;6.728;2022-10-31T05:40:21;101659.41;;;15.97;100.00
19086;BME280;9675;51.538;6.728;2022-10-31T05:42:51;101662.81;;;15.96;100.00
19086;BME280;9675;51.538;6.728;2022-10-31T05:45:20;101664.47;;;15.94;100.00
19086;BME280;9675;51.538;6.728;2022-10-31T05:47:53;101666.91;;;15.89;100.00
19086;BME280;9675;51.538;6.728;2022-10-31T05:50:21;101679.06;;;15.90;100.00
19086;BME280;9675;51.538;6.728;2022-10-31T05:52:55;101677.22;;;15.88;100.00
19086;BME280;9675;51.538;6.728;2022-10-31T05:55:23;101682.28;;;15.85;100.00
19086;BME280;9675;51.538;6.728;2022-10-31T05:57:51;101677.03;;;15.83;100.00
19086;BME280;9675;51.538;6.728;2022-10-31T06:00:19;101672.56;;;15.81;100.00
19086;BME280;9675;51.538;6.728;2022-10-31T06:02:46;101669.03;;;15.79;100.00
19086;BME280;9675;51.538;6.728;2022-10-31T06:05:15;101656.88;;;15.78;100.00
19086;BME280;9675;51.538;6.728;2022-10-31T06:07:43;101649.72;;;15.72;100.00
19086;BME280;9675;51.538;6.728;2022-10-31T06:10:10;101662.63;;;15.70;100.00
19086;BME280;9675;51.538;6.728;2022-10-31T06:12:37;101667.81;;;15.70;100.00
19086;BME280;9675;51.538;6.728;2022-10-31T06:15:07;101659.91;;;15.67;100.00
19086;BME280;9675;51.538;6.728;2022-10-31T06:17:35;101658.13;;;15.66;100.00
19086;BME280;9675;51.538;6.728;2022-10-31T06:20:04;101665.00;;;15.64;100.00
19086;BME280;9675;51.538;6.728;2022-10-31T06:22:33;101657.06;;;15.61;100.00
19086;BME280;9675;51.538;6.728;2022-10-31T06:25:00;101663.03;;;15.59;100.00
19086;BME280;9675;51.538;6.728;2022-10-31T06:27:27;101660.34;;;15.57;100.00
19086;BME280;9675;51.538;6.728;2022-10-31T06:29:55;101666.38;;;15.56;100.00
19086;BME280;9675;51.538;6.728;2022-10-31T06:32:22;101664.59;;;15.55;100.00
19086;BME280;9675;51.538;6.728;2022-10-31T06:34:49;101670.53;;;15.53;100.00
19086;BME280;9675;51.538;6.728;2022-10-31T06:37:16;101673.06;;;15.51;100.00
19086;BME280;9675;51.538;6.728;2022-10-31T06:39:44;101678.16;;;15.50;100.00
19086;BME280;9675;51.538;6.728;2022-10-31T06:42:11;101671.06;;;15.46;100.00
19086;BME280;9675;51.538;6.728;2022-10-31T06:44:38;101676.19;;;15.44;100.00
19086;BME280;9675;51.538;6.728;2022-10-31T06:47:06;101676.13;;;15.43;100.00
19086;BME280;9675;51.538;6.728;2022-10-31T06:49:33;101682.13;;;15.42;100.00
19086;BME280;9675;51.538;6.728;2022-10-31T06:52:00;101679.47;;;15.40;100.00
19086;BME280;9675;51.538;6.728;2022-10-31T06:54:27;101672.38;;;15.36;100.00
19086;BME280;9675;51.538;6.728;2022-10-31T06:56:55;101675.94;;;15.38;100.00
19086;BME280;9675;51.538;6.728;2022-10-31T06:59:22;101676.75;;;15.37;100.00
19086;BME280;9675;51.538;6.728;2022-10-31T07:01:50;101680.97;;;15.35;100.00
19086;BME280;9675;51.538;6.728;2022-10-31T07:04:17;101687.81;;;15.33;100.00
19086;BME280;9675;51.538;6.728;2022-10-31T07:06:44;101682.63;;;15.33;100.00
19086;BME280;9675;51.538;6.728;2022-10-31T07:09:11;101684.38;;;15.34;100.00
19086;BME280;9675;51.538;6.728;2022-10-31T07:11:39;101689.44;;;15.31;100.00
19086;BME280;9675;51.538;6.728;2022-10-31T07:14:07;101684.25;;;15.31;100.00
19086;BME280;9675;51.538;6.728;2022-10-31T07:16:34;101685.00;;;15.28;100.00
19086;BME280;9675;51.538;6.728;2022-10-31T07:19:01;101684.16;;;15.28;100.00
19086;BME280;9675;51.538;6.728;2022-10-31T07:21:29;101687.56;;;15.27;100.00
19086;BME280;9675;51.538;6.728;2022-10-31T07:23:56;101680.59;;;15.26;100.00
19086;BME280;9675;51.538;6.728;2022-10-31T07:26:23;101680.59;;;15.26;100.00
19086;BME280;9675;51.538;6.728;2022-10-31T07:28:51;101679.63;;;15.24;100.00
19086;BME280;9675;51.538;6.728;2022-10-31T07:31:20;101683.06;;;15.23;100.00
19086;BME280;9675;51.538;6.728;2022-10-31T07:33:47;101685.50;;;15.20;100.00
19086;BME280;9675;51.538;6.728;2022-10-31T07:36:14;101682.91;;;15.20;100.00
19086;BME280;9675;51.538;6.728;2022-10-31T07:38:41;101687.16;;;15.18;100.00
19086;BME280;9675;51.538;6.728;2022-10-31T07:41:08;101681.88;;;15.16;100.00
19086;BME280;9675;51.538;6.728;2022-10-31T07:43:35;101681.97;;;15.18;100.00
19086;BME280;9675;51.538;6.728;2022-10-31T07:46:02;101687.81;;;15.14;100.00
19086;BME280;9675;51.538;6.728;2022-10-31T07:48:30;101680.91;;;15.14;100.00
19086;BME280;9675;51.538;6.728;2022-10-31T07:50:57;101683.47;;;15.13;100.00
19086;BME280;9675;51.538;6.728;2022-10-31T07:53:24;101689.50;;;15.13;100.00
19086;BME280;9675;51.538;6.728;2022-10-31T07:55:51;101685.22;;;15.14;100.00
19086;BME280;9675;51.538;6.728;2022-10-31T07:58:18;101690.41;;;15.14;100.00
19086;BME280;9675;51.538;6.728;2022-10-31T08:00:47;101688.50;;;15.10;100.00
19086;BME280;9675;51.538;6.728;2022-10-31T08:03:17;101692.06;;;15.12;100.00
19086;BME280;9675;51.538;6.728;2022-10-31T08:05:45;101693.69;;;15.10;100.00
19086;BME280;9675;51.538;6.728;2022-10-31T08:08:13;101693.84;;;15.13;100.00
19086;BME280;9675;51.538;6.728;2022-10-31T08:10:41;101688.66;;;15.13;100.00
19086;BME280;9675;51.538;6.728;2022-10-31T08:13:11;101688.66;;;15.13;100.00
19086;BME280;9675;51.538;6.728;2022-10-31T08:15:38;101694.69;;;15.13;100.00
19086;BME280;9675;51.538;6.728;2022-10-31T08:18:13;101688.69;;;15.14;100.00
19086;BME280;9675;51.538;6.728;2022-10-31T08:20:41;101687.00;;;15.15;100.00
19086;BME280;9675;51.538;6.728;2022-10-31T08:23:11;101687.00;;;15.15;100.00
19086;BME280;9675;51.538;6.728;2022-10-31T08:25:39;101686.09;;;15.14;100.00
19086;BME280;9675;51.538;6.728;2022-10-31T08:28:10;101696.38;;;15.11;100.00
19086;BME280;9675;51.538;6.728;2022-10-31T08:30:37;101686.72;;;15.09;100.00
19086;BME280;9675;51.538;6.728;2022-10-31T08:33:08;101683.19;;;15.07;100.00
19086;BME280;9675;51.538;6.728;2022-10-31T08:35:35;101687.53;;;15.08;100.00
19086;BME280;9675;51.538;6.728;2022-10-31T08:38:03;101687.41;;;15.05;100.00
19086;BME280;9675;51.538;6.728;2022-10-31T08:40:33;101692.69;;;15.06;100.00
19086;BME280;9675;51.538;6.728;2022-10-31T08:43:03;101684.00;;;15.06;100.00
19086;BME280;9675;51.538;6.728;2022-10-31T08:45:32;101684.81;;;15.05;100.00
19086;BME280;9675;51.538;6.728;2022-10-31T08:48:02;101684.00;;;15.06;100.00
19086;BME280;9675;51.538;6.728;2022-10-31T08:50:33;101682.22;;;15.05;100.00
19086;BME280;9675;51.538;6.728;2022-10-31T08:53:00;101686.59;;;15.06;100.00
19086;BME280;9675;51.538;6.728;2022-10-31T08:55:28;101680.59;;;15.07;100.00
19086;BME280;9675;51.538;6.728;2022-10-31T08:57:57;101674.56;;;15.08;100.00
19086;BME280;9675;51.538;6.728;2022-10-31T09:00:25;101668.63;;;15.10;100.00
19086;BME280;9675;51.538;6.728;2022-10-31T09:02:56;101673.00;;;15.11;100.00
19086;BME280;9675;51.538;6.728;2022-10-31T09:05:24;101669.66;;;15.14;100.00
19086;BME280;9675;51.538;6.728;2022-10-31T09:07:55;101664.47;;;15.14;100.00
19086;BME280;9675;51.538;6.728;2022-10-31T09:10:23;101664.53;;;15.15;100.00
19086;BME280;9675;51.538;6.728;2022-10-31T09:12:56;101658.66;;;15.19;100.00
19086;BME280;9675;51.538;6.728;2022-10-31T09:15:24;101655.25;;;15.20;100.00
19086;BME280;9675;51.538;6.728;2022-10-31T09:17:51;101651.84;;;15.21;100.00
19086;BME280;9675;51.538;6.728;2022-10-31T09:20:18;101654.56;;;15.24;100.00
19086;BME280;9675;51.538;6.728;2022-10-31T09:22:46;101651.28;;;15.28;100.00
19086;BME280;9675;51.538;6.728;2022-10-31T09:25:14;101645.25;;;15.29;100.00
19086;BME280;9675;51.538;6.728;2022-10-31T09:27:41;101643.75;;;15.35;100.00
19086;BME280;9675;51.538;6.728;2022-10-31T09:30:11;101649.09;;;15.38;100.00
19086;BME280;9675;51.538;6.728;2022-10-31T09:32:38;101637.75;;;15.36;100.00
19086;BME280;9675;51.538;6.728;2022-10-31T09:35:06;101636.31;;;15.42;100.00
19086;BME280;9675;51.538;6.728;2022-10-31T09:37:33;101623.44;;;15.45;100.00
19086;BME280;9675;51.538;6.728;2022-10-31T09:40:00;101634.03;;;15.50;100.00
19086;BME280;9675;51.538;6.728;2022-10-31T09:42:54;101620.34;;;15.52;100.00
19086;BME280;9675;51.538;6.728;2022-10-31T09:45:32;101625.63;;;15.55;100.00
19086;BME280;9675;51.538;6.728;2022-10-31T09:48:19;101607.63;;;15.58;100.00
19086;BME280;9675;51.538;6.728;2022-10-31T09:50:57;101607.72;;;15.61;100.00
19086;BME280;9675;51.538;6.728;2022-10-31T09:53:33;101606.97;;;15.64;100.00
19086;BME280;9675;51.538;6.728;2022-10-31T09:56:06;101606.19;;;15.66;100.00
19086;BME280;9675;51.538;6.728;2022-10-31T09:58:42;101610.66;;;15.69;100.00
19086;BME280;9675;51.538;6.728;2022-10-31T10:01:32;101602.97;;;15.72;100.00
19086;BME280;9675;51.538;6.728;2022-10-31T10:04:05;101603.03;;;15.73;100.00
19086;BME280;9675;51.538;6.728;2022-10-31T10:06:43;101600.50;;;15.75;100.00
19086;BME280;9675;51.538;6.728;2022-10-31T10:09:11;101604.03;;;15.77;100.00
19086;BME280;9675;51.538;6.728;2022-10-31T10:11:57;101594.56;;;15.78;100.00
19086;BME280;9675;51.538;6.728;2022-10-31T10:14:51;101593.84;;;15.82;100.00
19086;BME280;9675;51.538;6.728;2022-10-31T10:17:34;101591.38;;;15.85;100.00
19086;BME280;9675;51.538;6.728;2022-10-31T10:20:27;101581.94;;;15.87;100.00
19086;BME280;9675;51.538;6.728;2022-10-31T10:23:15;101575.91;;;15.88;100.00
19086;BME280;9675;51.538;6.728;2022-10-31T10:25:49;101576.16;;;15.94;100.00
19086;BME280;9675;51.538;6.728;2022-10-31T10:28:25;101589.25;;;15.97;100.00
19086;BME280;9675;51.538;6.728;2022-10-31T10:30:59;101583.50;;;16.04;100.00
19086;BME280;9675;51.538;6.728;2022-10-31T10:33:35;101580.19;;;16.08;100.00
19086;BME280;9675;51.538;6.728;2022-10-31T10:36:08;101576.03;;;16.13;100.00
19086;BME280;9675;51.538;6.728;2022-10-31T10:38:46;101576.34;;;16.21;100.00
19086;BME280;9675;51.538;6.728;2022-10-31T10:41:18;101567.91;;;16.26;100.00
19086;BME280;9675;51.538;6.728;2022-10-31T10:43:49;101558.56;;;16.31;100.00
19086;BME280;9675;51.538;6.728;2022-10-31T10:46:22;101553.56;;;16.37;100.00
19086;BME280;9675;51.538;6.728;2022-10-31T10:49:18;101538.19;;;16.42;100.00
19086;BME280;9675;51.538;6.728;2022-10-31T10:51:52;101544.47;;;16.48;100.00
19086;BME280;9675;51.538;6.728;2022-10-31T10:54:44;101533.41;;;16.54;100.00
19086;BME280;9675;51.538;6.728;2022-10-31T10:57:23;101534.50;;;16.59;100.00
19086;BME280;9675;51.538;6.728;2022-10-31T10:59:54;101524.22;;;16.62;100.00
19086;BME280;9675;51.538;6.728;2022-10-31T11:02:25;101530.41;;;16.66;100.00
19086;BME280;9675;51.538;6.728;2022-10-31T11:04:57;101534.06;;;16.71;100.00
19086;BME280;9675;51.538;6.728;2022-10-31T11:07:25;101523.75;;;16.74;100.00
19086;BME280;9675;51.538;6.728;2022-10-31T11:10:04;101509.16;;;16.77;100.00
19086;BME280;9675;51.538;6.728;2022-10-31T11:12:40;101487.56;;;16.80;100.00
19086;BME280;9675;51.538;6.728;2022-10-31T11:15:19;101482.47;;;16.83;100.00
19086;BME280;9675;51.538;6.728;2022-10-31T11:17:50;101473.03;;;16.86;100.00
19086;BME280;9675;51.538;6.728;2022-10-31T11:20:30;101451.47;;;16.89;100.00
19086;BME280;9675;51.538;6.728;2022-10-31T11:23:05;101458.53;;;16.93;100.00
19086;BME280;9675;51.538;6.728;2022-10-31T11:25:33;101456.84;;;16.95;100.00
19086;BME280;9675;51.538;6.728;2022-10-31T11:28:01;101460.50;;;17.00;100.00
19086;BME280;9675;51.538;6.728;2022-10-31T11:30:30;101466.63;;;17.02;100.00
19086;BME280;9675;51.538;6.728;2022-10-31T11:32:58;101472.81;;;17.06;100.00
19086;BME280;9675;51.538;6.728;2022-10-31T11:35:28;101470.34;;;17.09;100.00
19086;BME280;9675;51.538;6.728;2022-10-31T11:38:06;101465.22;;;17.12;100.00
19086;BME280;9675;51.538;6.728;2022-10-31T11:40:33;101469.53;;;17.11;100.00
19086;BME280;9675;51.538;6.728;2022-10-31T11:43:00;101474.94;;;17.17;100.00
19086;BME280;9675;51.538;6.728;2022-10-31T11:45:32;101471.59;;;17.20;100.00
19086;BME280;9675;51.538;6.728;2022-10-31T11:48:02;101466.47;;;17.23;100.00
19086;BME280;9675;51.538;6.728;2022-10-31T11:50:37;101457.00;;;17.25;100.00
19086;BME280;9675;51.538;6.728;2022-10-31T11:53:16;101451.00;;;17.27;100.00
19086;BME280;9675;51.538;6.728;2022-10-31T11:55:45;101440.56;;;17.27;100.00
19086;BME280;9675;51.538;6.728;2022-10-31T11:58:24;101443.38;;;17.33;100.00
19086;BME280;9675;51.538;6.728;2022-10-31T12:00:55;101446.03;;;17.35;100.00
19086;BME280;9675;51.538;6.728;2022-10-31T12:03:51;101445.31;;;17.39;100.00
19086;BME280;9675;51.538;6.728;2022-10-31T12:06:28;101448.81;;;17.41;100.00
19086;BME280;9675;51.538;6.728;2022-10-31T12:08:59;101442.84;;;17.43;100.00
19086;BME280;9675;51.538;6.728;2022-10-31T12:11:43;101425.56;;;17.46;100.00
19086;BME280;9675;51.538;6.728;2022-10-31T12:14:28;101428.19;;;17.47;100.00
19086;BME280;9675;51.538;6.728;2022-10-31T12:17:09;101416.16;;;17.51;100.00
19086;BME280;9675;51.538;6.728;2022-10-31T12:19:46;101397.13;;;17.53;100.00
19086;BME280;9675;51.538;6.728;2022-10-31T12:22:26;101397.22;;;17.56;100.00
19086;BME280;9675;51.538;6.728;2022-10-31T12:25:20;101383.34;;;17.57;100.00
19086;BME280;9675;51.538;6.728;2022-10-31T12:28:35;101377.41;;;17.60;100.00
19086;BME280;9675;51.538;6.728;2022-10-31T12:31:22;101372.25;;;17.63;100.00
19086;BME280;9675;51.538;6.728;2022-10-31T12:34:03;101357.47;;;17.62;100.00
19086;BME280;9675;51.538;6.728;2022-10-31T12:36:49;101369.84;;;17.69;100.00
19086;BME280;9675;51.538;6.728;2022-10-31T12:39:40;101363.00;;;17.72;100.00
19086;BME280;9675;51.538;6.728;2022-10-31T12:42:23;101357.00;;;17.75;100.00
19086;BME280;9675;51.538;6.728;2022-10-31T12:45:10;101353.59;;;17.77;100.00
19086;BME280;9675;51.538;6.728;2022-10-31T12:47:57;101340.63;;;17.79;100.00
19086;BME280;9675;51.538;6.728;2022-10-31T12:50:45;101331.97;;;17.80;100.00
19086;BME280;9675;51.538;6.728;2022-10-31T12:53:32;101322.47;;;17.82;100.00
19086;BME280;9675;51.538;6.728;2022-10-31T12:56:18;101314.72;;;17.85;100.00
19086;BME280;9675;51.538;6.728;2022-10-31T12:58:57;101308.75;;;17.89;100.00
19086;BME280;9675;51.538;6.728;2022-10-31T13:01:33;101310.59;;;17.93;100.00
19086;BME280;9675;51.538;6.728;2022-10-31T13:04:05;101301.19;;;17.98;100.00
19086;BME280;9675;51.538;6.728;2022-10-31T13:06:43;101296.97;;;18.03;100.00
19086;BME280;9675;51.538;6.728;2022-10-31T13:09:21;101293.63;;;18.07;100.00
19086;BME280;9675;51.538;6.728;2022-10-31T13:11:58;101272.84;;;18.10;100.00
19086;BME280;9675;51.538;6.728;2022-10-31T13:14:30;101265.97;;;18.14;100.00
19086;BME280;9675;51.538;6.728;2022-10-31T13:17:01;101265.25;;;18.18;100.00
19086;BME280;9675;51.538;6.728;2022-10-31T13:19:34;101260.03;;;18.19;100.00